createdAt,value
2019-04-16T00:01:32.409Z,100915.92
2019-04-16T00:04:22.304Z,100913.40
2019-04-16T00:06:52.966Z,100914.67
2019-04-16T00:09:30.066Z,100905.21
2019-04-16T00:12:04.302Z,100907.82
2019-04-16T00:14:35.482Z,100899.73
2019-04-16T00:17:05.144Z,100893.94
2019-04-16T00:19:35.451Z,100892.28
2019-04-16T00:22:12.643Z,100888.81
2019-04-16T00:24:43.899Z,100884.27
2019-04-16T00:27:13.466Z,100880.70
2019-04-16T00:29:43.072Z,100874.84
2019-04-16T00:32:14.305Z,100874.34
2019-04-16T00:34:44.772Z,100876.40
2019-04-16T00:37:14.981Z,100873.16
2019-04-16T00:39:44.572Z,100863.48
2019-04-16T00:42:14.179Z,100871.65
2019-04-16T00:44:43.777Z,100867.03
2019-04-16T00:47:13.427Z,100861.47
2019-04-16T00:49:43.023Z,100862.02
2019-04-16T00:52:12.606Z,100861.41
2019-04-16T00:54:43.187Z,100865.56
2019-04-16T00:57:17.769Z,100859.98
2019-04-16T00:59:44.230Z,100865.26
2019-04-16T01:02:13.808Z,100868.83
2019-04-16T01:04:43.397Z,100865.69
2019-04-16T01:07:12.991Z,100862.05
2019-04-16T01:09:42.597Z,100863.21
2019-04-16T01:12:12.196Z,100869.06
2019-04-16T01:14:41.816Z,100857.05
2019-04-16T01:17:11.425Z,100857.77
2019-04-16T01:19:41.817Z,100859.93
2019-04-16T01:22:15.764Z,100858.81
2019-04-16T01:24:43.127Z,100866.15
2019-04-16T01:27:12.698Z,100862.80
2019-04-16T01:29:42.318Z,100864.57
2019-04-16T01:32:29.613Z,100857.39
2019-04-16T01:35:01.798Z,100862.77
2019-04-16T01:37:41.623Z,100853.20
2019-04-16T01:40:13.260Z,100849.67
2019-04-16T01:42:42.847Z,100862.05
2019-04-16T01:45:12.605Z,100855.30
2019-04-16T01:47:42.200Z,100848.19
2019-04-16T01:50:13.695Z,100856.85
2019-04-16T01:52:43.118Z,100853.58
2019-04-16T01:55:12.739Z,100859.12
2019-04-16T01:57:42.329Z,100857.65
2019-04-16T02:00:12.451Z,100857.40
2019-04-16T02:02:43.496Z,100857.22
2019-04-16T02:05:13.470Z,100858.09
2019-04-16T02:07:43.994Z,100857.50
2019-04-16T02:10:14.026Z,100858.23
2019-04-16T02:12:43.950Z,100864.39
2019-04-16T02:15:14.341Z,100861.03
2019-04-16T02:17:44.008Z,100856.34
2019-04-16T02:20:13.982Z,100855.66
2019-04-16T02:22:45.117Z,100858.00
2019-04-16T02:25:18.884Z,100859.81
2019-04-16T02:27:46.251Z,100859.09
2019-04-16T02:30:16.864Z,100869.58
2019-04-16T02:32:46.466Z,100868.38
2019-04-16T02:35:16.083Z,100870.00
2019-04-16T02:37:45.665Z,100873.23
2019-04-16T02:40:18.289Z,100867.42
2019-04-16T02:42:46.674Z,100865.80
2019-04-16T02:45:23.020Z,100866.23
2019-04-16T02:47:47.619Z,100862.87
2019-04-16T02:50:18.927Z,100861.88
2019-04-16T02:52:58.838Z,100860.84
2019-04-16T02:55:32.913Z,100863.83
2019-04-16T02:58:09.741Z,100862.02
2019-04-16T03:00:57.369Z,100857.11
2019-04-16T03:03:31.450Z,100858.12
2019-04-16T03:06:01.894Z,100858.02
2019-04-16T03:08:35.637Z,100854.81
2019-04-16T03:11:03.511Z,100854.02
2019-04-16T03:13:33.108Z,100854.12
2019-04-16T03:16:09.925Z,100849.42
2019-04-16T03:18:50.132Z,100847.88
2019-04-16T03:21:19.753Z,100847.37
2019-04-16T03:23:49.336Z,100848.01
2019-04-16T03:26:18.944Z,100848.75
2019-04-16T03:28:48.540Z,100854.52
2019-04-16T03:31:23.007Z,100852.33
2019-04-16T03:33:51.032Z,100854.09
2019-04-16T03:36:20.779Z,100846.30
2019-04-16T03:38:50.360Z,100852.77
2019-04-16T03:41:19.960Z,100844.08
2019-04-16T03:43:49.550Z,100846.53
2019-04-16T03:46:19.154Z,100840.99
2019-04-16T03:48:48.759Z,100843.66
2019-04-16T03:51:18.383Z,100845.70
2019-04-16T03:53:49.581Z,100848.50
2019-04-16T03:56:19.338Z,100852.20
2019-04-16T03:58:48.938Z,100847.91
2019-04-16T04:01:18.527Z,100847.37
2019-04-16T04:03:48.120Z,100848.01
2019-04-16T04:06:17.756Z,100850.80
2019-04-16T04:08:48.327Z,100848.98
2019-04-16T04:11:18.623Z,100851.45
2019-04-16T04:13:50.066Z,100840.58
2019-04-16T04:16:19.613Z,100842.95
2019-04-16T04:18:50.776Z,100850.02
2019-04-16T04:21:22.309Z,100851.64
2019-04-16T04:23:51.687Z,100846.73
2019-04-16T04:26:21.273Z,100846.44
2019-04-16T04:28:51.762Z,100851.45
2019-04-16T04:31:22.152Z,100850.44
2019-04-16T04:33:51.741Z,100845.70
2019-04-16T04:36:22.966Z,100850.10
2019-04-16T04:38:53.763Z,100851.52
2019-04-16T04:41:24.244Z,100851.84
2019-04-16T04:43:53.939Z,100846.94
2019-04-16T04:46:23.521Z,100850.30
2019-04-16T04:48:55.337Z,100849.13
2019-04-16T04:51:24.448Z,100849.54
2019-04-16T04:53:54.044Z,100846.95
2019-04-16T04:56:27.662Z,100843.78
2019-04-16T04:58:55.053Z,100844.56
2019-04-16T05:01:24.638Z,100845.05
2019-04-16T05:03:56.573Z,100841.95
2019-04-16T05:06:30.251Z,100839.45
2019-04-16T05:09:00.461Z,100839.02
2019-04-16T05:11:31.133Z,100839.30
2019-04-16T05:14:00.734Z,100841.61
2019-04-16T05:16:31.541Z,100845.08
2019-04-16T05:19:01.685Z,100846.88
2019-04-16T05:21:32.620Z,100850.00
2019-04-16T05:24:02.247Z,100854.58
2019-04-16T05:26:33.641Z,100857.29
2019-04-16T05:29:16.305Z,100855.38
2019-04-16T05:31:44.124Z,100855.92
2019-04-16T05:34:16.996Z,100852.52
2019-04-16T05:36:47.790Z,100847.60
2019-04-16T05:39:16.374Z,100854.16
2019-04-16T05:41:45.967Z,100853.66
2019-04-16T05:44:15.571Z,100845.66
2019-04-16T05:46:46.830Z,100845.23
2019-04-16T05:49:18.973Z,100844.73
2019-04-16T05:51:48.572Z,100855.92
2019-04-16T05:54:35.788Z,100851.31
2019-04-16T05:57:10.024Z,100854.10
2019-04-16T05:59:39.644Z,100852.30
2019-04-16T06:02:15.003Z,100855.85
2019-04-16T06:04:44.823Z,100855.45
2019-04-16T06:07:14.441Z,100856.31
2019-04-16T06:09:45.491Z,100864.32
2019-04-16T06:12:16.623Z,100862.41
2019-04-16T06:14:56.644Z,100868.44
2019-04-16T06:17:44.112Z,100871.50
2019-04-16T06:20:20.533Z,100860.42
2019-04-16T06:23:00.625Z,100859.94
2019-04-16T06:25:34.215Z,100864.15
2019-04-16T06:28:15.071Z,100863.86
2019-04-16T06:30:46.341Z,100859.45
2019-04-16T06:33:18.995Z,100864.20
2019-04-16T06:35:50.215Z,100861.95
2019-04-16T06:38:30.041Z,100863.33
2019-04-16T06:41:10.306Z,100864.00
2019-04-16T06:43:50.507Z,100866.17
2019-04-16T06:46:28.556Z,100861.38
2019-04-16T06:49:02.366Z,100860.53
2019-04-16T06:51:33.657Z,100864.02
2019-04-16T06:54:21.034Z,100865.25
2019-04-16T06:56:50.545Z,100858.98
2019-04-16T06:59:26.607Z,100862.97
2019-04-16T07:02:01.940Z,100859.55
2019-04-16T07:04:33.182Z,100859.61
2019-04-16T07:07:21.815Z,100858.30
2019-04-16T07:09:58.578Z,100858.78
2019-04-16T07:12:28.586Z,100856.48
2019-04-16T07:14:58.255Z,100854.95
2019-04-16T07:17:33.288Z,100853.66
2019-04-16T07:19:59.216Z,100862.28
2019-04-16T07:22:28.841Z,100859.30
2019-04-16T07:25:03.869Z,100854.42
2019-04-16T07:27:35.060Z,100859.44
2019-04-16T07:30:06.847Z,100861.72
2019-04-16T07:32:37.383Z,100862.59
2019-04-16T07:35:27.228Z,100861.34
2019-04-16T07:37:58.699Z,100861.36
2019-04-16T07:40:46.378Z,100859.74
2019-04-16T07:43:31.026Z,100850.56
2019-04-16T07:45:59.416Z,100857.30
2019-04-16T07:48:32.808Z,100858.61
2019-04-16T07:51:12.725Z,100861.64
2019-04-16T07:53:47.472Z,100855.62
2019-04-16T07:56:21.931Z,100857.16
2019-04-16T07:58:51.679Z,100859.06
2019-04-16T08:01:21.297Z,100854.63
2019-04-16T08:03:50.905Z,100859.39
2019-04-16T08:06:20.526Z,100858.88
2019-04-16T08:08:50.199Z,100856.03
2019-04-16T08:11:22.905Z,100864.73
2019-04-16T08:13:51.136Z,100864.80
2019-04-16T08:16:20.753Z,100861.23
2019-04-16T08:18:51.032Z,100860.82
2019-04-16T08:21:22.764Z,100855.58
2019-04-16T08:23:56.394Z,100860.23
2019-04-16T08:26:26.018Z,100863.73
2019-04-16T08:28:55.780Z,100851.34
2019-04-16T08:31:26.620Z,100852.70
2019-04-16T08:33:56.238Z,100855.38
2019-04-16T08:36:25.813Z,100858.38
2019-04-16T08:38:55.447Z,100861.34
2019-04-16T08:41:25.025Z,100864.20
2019-04-16T08:43:54.646Z,100852.70
2019-04-16T08:46:24.249Z,100855.30
2019-04-16T08:48:54.350Z,100866.72
2019-04-16T08:51:30.630Z,100862.06
2019-04-16T08:53:55.681Z,100866.75
2019-04-16T08:56:25.295Z,100867.98
2019-04-16T08:58:59.997Z,100863.20
2019-04-16T09:01:27.916Z,100863.26
2019-04-16T09:04:01.524Z,100859.57
2019-04-16T09:06:28.880Z,100860.44
2019-04-16T09:09:12.467Z,100852.92
2019-04-16T09:11:35.324Z,100855.09
2019-04-16T09:14:06.800Z,100862.42
2019-04-16T09:16:43.484Z,100856.67
2019-04-16T09:19:16.426Z,100856.41
2019-04-16T09:21:46.045Z,100859.10
2019-04-16T09:24:22.846Z,100862.88
2019-04-16T09:27:13.499Z,100861.48
2019-04-16T09:30:00.782Z,100853.59
2019-04-16T09:32:42.084Z,100860.05
2019-04-16T09:35:31.598Z,100865.41
2019-04-16T09:38:00.973Z,100862.78
2019-04-16T09:40:49.240Z,100859.78
2019-04-16T09:43:20.729Z,100861.44
2019-04-16T09:45:50.333Z,100850.00
2019-04-16T09:48:20.133Z,100854.02
2019-04-16T09:50:49.821Z,100852.11
2019-04-16T09:53:32.235Z,100849.81
2019-04-16T09:55:51.310Z,100859.06
2019-04-16T09:58:22.943Z,100856.86
2019-04-16T10:01:03.181Z,100848.62
2019-04-16T10:03:34.432Z,100850.77
2019-04-16T10:06:05.731Z,100848.92
2019-04-16T10:08:35.502Z,100856.92
2019-04-16T10:11:06.211Z,100858.65
2019-04-16T10:13:36.514Z,100858.65
2019-04-16T10:16:06.879Z,100860.56
2019-04-16T10:18:36.501Z,100852.38
2019-04-16T10:21:06.147Z,100843.84
2019-04-16T10:23:37.393Z,100838.55
2019-04-16T10:26:07.063Z,100838.52
2019-04-16T10:28:44.301Z,100840.63
2019-04-16T10:31:15.896Z,100843.45
2019-04-16T10:33:45.530Z,100836.86
2019-04-16T10:36:15.154Z,100839.88
2019-04-16T10:38:50.017Z,100830.22
2019-04-16T10:41:29.839Z,100842.54
2019-04-16T10:44:16.613Z,100839.80
2019-04-16T10:46:47.902Z,100829.64
2019-04-16T10:49:19.194Z,100827.52
2019-04-16T10:51:51.158Z,100833.26
2019-04-16T10:54:38.413Z,100827.33
2019-04-16T10:57:16.421Z,100830.25
2019-04-16T10:59:50.216Z,100828.91
2019-04-16T11:02:37.523Z,100826.08
2019-04-16T11:05:25.707Z,100830.98
2019-04-16T11:07:57.079Z,100816.91
2019-04-16T11:10:26.797Z,100823.00
2019-04-16T11:12:56.374Z,100813.23
2019-04-16T11:15:27.185Z,100814.45
2019-04-16T11:17:56.813Z,100810.80
2019-04-16T11:20:26.969Z,100814.61
2019-04-16T11:22:56.570Z,100803.63
2019-04-16T11:25:26.176Z,100804.64
2019-04-16T11:27:55.907Z,100808.31
2019-04-16T11:30:33.091Z,100810.48
2019-04-16T11:33:03.109Z,100806.81
2019-04-16T11:35:32.900Z,100808.77
2019-04-16T11:38:02.765Z,100806.84
2019-04-16T11:40:32.693Z,100806.87
2019-04-16T11:43:02.298Z,100799.38
2019-04-16T11:45:32.125Z,100804.73
2019-04-16T11:48:01.760Z,100791.75
2019-04-16T11:50:31.396Z,100799.17
2019-04-16T11:53:01.038Z,100802.30
2019-04-16T11:55:30.622Z,100806.11
2019-04-16T11:58:00.254Z,100801.20
2019-04-16T12:00:31.625Z,100803.23
2019-04-16T12:03:06.886Z,100795.88
2019-04-16T12:05:38.114Z,100791.92
2019-04-16T12:08:09.521Z,100788.58
2019-04-16T12:10:41.038Z,100788.33
2019-04-16T12:13:28.206Z,100791.50
2019-04-16T12:16:08.528Z,100792.03
2019-04-16T12:18:48.408Z,100788.20
2019-04-16T12:21:35.885Z,100789.34
2019-04-16T12:24:07.242Z,100786.85
2019-04-16T12:26:54.965Z,100786.15
2019-04-16T12:29:35.038Z,100777.56
2019-04-16T12:32:22.710Z,100781.42
2019-04-16T12:35:05.824Z,100778.84
2019-04-16T12:37:53.105Z,100777.45
2019-04-16T12:40:26.929Z,100771.51
2019-04-16T12:43:03.747Z,100772.86
2019-04-16T12:45:38.708Z,100774.23
2019-04-16T12:48:10.067Z,100776.66
2019-04-16T12:50:57.410Z,100768.71
2019-04-16T12:53:28.643Z,100763.25
2019-04-16T12:55:58.513Z,100765.02
2019-04-16T12:58:50.688Z,100765.84
2019-04-16T13:01:26.992Z,100763.97
2019-04-16T13:04:00.760Z,100768.42
2019-04-16T13:06:34.384Z,100768.51
2019-04-16T13:09:14.232Z,100773.05
2019-04-16T13:11:47.896Z,100766.02
2019-04-16T13:14:23.785Z,100758.46
2019-04-16T13:17:03.914Z,100772.41
2019-04-16T13:19:39.602Z,100764.45
2019-04-16T13:22:36.135Z,100761.98
2019-04-16T13:25:09.752Z,100752.19
2019-04-16T13:27:40.977Z,100747.28
2019-04-16T13:30:12.300Z,100750.09
2019-04-16T13:32:41.917Z,100752.19
2019-04-16T13:35:11.600Z,100751.75
2019-04-16T13:37:41.209Z,100741.08
2019-04-16T13:40:14.793Z,100748.16
2019-04-16T13:42:44.411Z,100752.44
2019-04-16T13:45:27.959Z,100740.22
2019-04-16T13:48:13.935Z,100741.73
2019-04-16T13:50:40.736Z,100741.75
2019-04-16T13:53:10.109Z,100738.51
2019-04-16T13:55:49.512Z,100737.70
2019-04-16T13:58:26.119Z,100730.92
2019-04-16T14:00:57.366Z,100736.58
2019-04-16T14:03:26.973Z,100734.98
2019-04-16T14:05:57.760Z,100732.39
2019-04-16T14:08:27.369Z,100724.12
2019-04-16T14:10:56.988Z,100726.14
2019-04-16T14:13:27.663Z,100725.88
2019-04-16T14:15:57.284Z,100730.06
2019-04-16T14:18:29.670Z,100734.07
2019-04-16T14:21:00.396Z,100737.67
2019-04-16T14:23:31.812Z,100730.05
2019-04-16T14:26:01.456Z,100738.80
2019-04-16T14:28:34.309Z,100727.02
2019-04-16T14:31:03.467Z,100732.86
2019-04-16T14:33:34.695Z,100729.41
2019-04-16T14:36:04.970Z,100729.08
2019-04-16T14:38:45.347Z,100731.00
2019-04-16T14:41:16.148Z,100734.48
2019-04-16T14:43:47.476Z,100722.89
2019-04-16T14:46:17.109Z,100733.21
2019-04-16T14:48:46.858Z,100718.52
2019-04-16T14:51:16.507Z,100720.62
2019-04-16T14:53:56.447Z,100725.59
2019-04-16T14:56:30.543Z,100729.00
2019-04-16T14:59:07.903Z,100726.95
2019-04-16T15:01:49.206Z,100730.47
2019-04-16T15:04:22.025Z,100731.08
2019-04-16T15:06:56.136Z,100731.49
2019-04-16T15:09:37.097Z,100730.43
2019-04-16T15:12:12.246Z,100735.58
2019-04-16T15:14:52.373Z,100728.73
2019-04-16T15:17:32.334Z,100737.47
2019-04-16T15:20:21.190Z,100733.81
2019-04-16T15:22:59.351Z,100733.88
2019-04-16T15:25:32.133Z,100737.02
2019-04-16T15:28:09.361Z,100739.32
2019-04-16T15:30:49.132Z,100734.22
2019-04-16T15:33:20.404Z,100737.45
2019-04-16T15:35:51.667Z,100743.41
2019-04-16T15:38:33.236Z,100745.95
2019-04-16T15:41:20.421Z,100748.48
2019-04-16T15:44:07.719Z,100745.46
2019-04-16T15:46:52.264Z,100748.99
2019-04-16T15:49:39.514Z,100748.48
2019-04-16T15:52:10.336Z,100748.80
2019-04-16T15:54:47.687Z,100744.74
2019-04-16T15:57:20.473Z,100747.61
2019-04-16T16:00:07.903Z,100755.09
2019-04-16T16:02:47.756Z,100751.86
2019-04-16T16:05:17.251Z,100752.22
2019-04-16T16:07:56.087Z,100749.14
2019-04-16T16:10:29.467Z,100753.00
2019-04-16T16:12:59.713Z,100754.58
2019-04-16T16:15:29.641Z,100754.12
2019-04-16T16:17:59.775Z,100754.63
2019-04-16T16:20:29.587Z,100760.27
2019-04-16T16:22:59.811Z,100762.84
2019-04-16T16:25:29.756Z,100765.15
2019-04-16T16:28:00.020Z,100764.96
2019-04-16T16:30:30.346Z,100762.20
2019-04-16T16:33:02.703Z,100768.59
2019-04-16T16:35:34.854Z,100766.17
2019-04-16T16:38:03.723Z,100767.78
2019-04-16T16:40:35.037Z,100766.82
2019-04-16T16:43:07.943Z,100770.55
2019-04-16T16:45:54.820Z,100764.29
2019-04-16T16:48:35.814Z,100768.05
2019-04-16T16:51:05.982Z,100777.17
2019-04-16T16:53:54.467Z,100773.48
2019-04-16T16:56:28.569Z,100772.83
2019-04-16T16:59:01.374Z,100773.26
2019-04-16T17:01:35.201Z,100777.19
2019-04-16T17:04:04.681Z,100775.42
2019-04-16T17:06:34.297Z,100772.30
2019-04-16T17:09:05.707Z,100777.58
2019-04-16T17:11:35.327Z,100782.02
2019-04-16T17:14:05.156Z,100779.97
2019-04-16T17:16:34.774Z,100781.69
2019-04-16T17:19:04.656Z,100786.86
2019-04-16T17:21:34.245Z,100778.44
2019-04-16T17:24:04.719Z,100785.83
2019-04-16T17:26:34.312Z,100784.33
2019-04-16T17:29:03.932Z,100786.00
2019-04-16T17:31:36.021Z,100790.96
2019-04-16T17:34:07.238Z,100792.89
2019-04-16T17:36:36.853Z,100794.59
2019-04-16T17:39:10.792Z,100791.17
2019-04-16T17:41:55.274Z,100791.81
2019-04-16T17:44:45.454Z,100795.39
2019-04-16T17:47:31.373Z,100800.88
2019-04-16T17:49:49.703Z,100807.47
2019-04-16T17:52:26.607Z,100810.47
2019-04-16T17:54:57.905Z,100812.38
2019-04-16T17:57:34.991Z,100815.14
2019-04-16T18:00:14.890Z,100814.66
2019-04-16T18:02:46.127Z,100822.27
2019-04-16T18:05:17.361Z,100825.80
2019-04-16T18:07:46.729Z,100828.83
2019-04-16T18:10:34.582Z,100829.65
2019-04-16T18:13:21.765Z,100837.24
2019-04-16T18:15:51.160Z,100843.48
2019-04-16T18:18:28.161Z,100851.34
2019-04-16T18:21:15.357Z,100842.66
2019-04-16T18:23:58.648Z,100848.62
2019-04-16T18:26:28.050Z,100854.85
2019-04-16T18:29:02.656Z,100859.48
2019-04-16T18:31:36.833Z,100856.77
2019-04-16T18:34:09.117Z,100857.05
2019-04-16T18:36:46.730Z,100856.50
2019-04-16T18:39:37.208Z,100865.69
2019-04-16T18:42:07.315Z,100868.41
2019-04-16T18:44:57.812Z,100867.32
2019-04-16T18:47:34.726Z,100872.45
2019-04-16T18:50:07.202Z,100882.45
2019-04-16T18:52:37.489Z,100877.56
2019-04-16T18:55:08.718Z,100884.56
2019-04-16T18:57:39.190Z,100884.30
2019-04-16T19:00:14.881Z,100892.61
2019-04-16T19:02:44.480Z,100897.20
2019-04-16T19:05:14.092Z,100904.75
2019-04-16T19:07:43.711Z,100903.39
2019-04-16T19:10:13.329Z,100911.20
2019-04-16T19:12:42.944Z,100910.34
2019-04-16T19:15:12.540Z,100917.92
2019-04-16T19:17:42.139Z,100914.39
2019-04-16T19:20:17.039Z,100914.66
2019-04-16T19:22:43.140Z,100917.35
2019-04-16T19:25:12.745Z,100920.58
2019-04-16T19:27:42.357Z,100931.12
2019-04-16T19:30:12.365Z,100925.67
2019-04-16T19:32:42.002Z,100924.55
2019-04-16T19:35:17.546Z,100923.20
2019-04-16T19:37:42.949Z,100927.52
2019-04-16T19:40:16.052Z,100934.52
2019-04-16T19:42:44.055Z,100931.80
2019-04-16T19:45:13.642Z,100940.95
2019-04-16T19:47:43.259Z,100940.12
2019-04-16T19:50:13.494Z,100938.98
2019-04-16T19:52:45.651Z,100946.03
2019-04-16T19:55:14.505Z,100945.56
2019-04-16T19:57:45.665Z,100945.56
2019-04-16T20:00:21.948Z,100946.03
2019-04-16T20:02:47.018Z,100957.10
2019-04-16T20:05:18.320Z,100954.34
2019-04-16T20:07:48.563Z,100957.28
2019-04-16T20:10:18.173Z,100959.41
2019-04-16T20:12:47.788Z,100963.47
2019-04-16T20:15:18.057Z,100955.87
2019-04-16T20:17:48.257Z,100957.22
2019-04-16T20:20:17.854Z,100963.13
2019-04-16T20:22:47.469Z,100965.50
2019-04-16T20:25:17.090Z,100967.56
2019-04-16T20:27:46.699Z,100968.86
2019-04-16T20:30:16.343Z,100968.02
2019-04-16T20:32:45.963Z,100970.07
2019-04-16T20:35:18.870Z,100973.52
2019-04-16T20:37:46.926Z,100976.12
2019-04-16T20:40:17.831Z,100974.50
2019-04-16T20:42:47.896Z,100972.33
2019-04-16T20:45:17.488Z,100974.92
2019-04-16T20:47:47.114Z,100973.56
2019-04-16T20:50:20.529Z,100971.70
2019-04-16T20:52:48.034Z,100969.22
2019-04-16T20:55:17.880Z,100979.16
2019-04-16T20:57:47.484Z,100978.11
2019-04-16T21:00:18.996Z,100985.85
2019-04-16T21:02:51.148Z,100978.81
2019-04-16T21:05:22.322Z,100984.94
2019-04-16T21:07:51.261Z,100979.05
2019-04-16T21:10:20.863Z,100983.09
2019-04-16T21:12:50.486Z,100983.59
2019-04-16T21:15:20.093Z,100982.75
2019-04-16T21:17:49.727Z,100980.03
2019-04-16T21:20:20.487Z,100981.65
2019-04-16T21:22:50.233Z,100981.63
2019-04-16T21:25:19.815Z,100986.95
2019-04-16T21:27:51.069Z,100990.44
2019-04-16T21:30:20.668Z,100990.37
2019-04-16T21:33:03.745Z,100994.06
2019-04-16T21:35:34.946Z,100991.94
2019-04-16T21:38:18.405Z,100995.66
2019-04-16T21:40:47.999Z,101000.17
2019-04-16T21:43:17.613Z,100995.01
2019-04-16T21:45:48.252Z,101000.61
2019-04-16T21:48:18.638Z,100994.92
2019-04-16T21:50:48.431Z,100997.84
2019-04-16T21:53:18.113Z,101002.95
2019-04-16T21:55:47.726Z,100998.91
2019-04-16T21:58:17.673Z,101003.09
2019-04-16T22:00:49.654Z,101002.43
2019-04-16T22:03:23.610Z,100999.37
2019-04-16T22:05:53.224Z,101000.27
2019-04-16T22:08:22.839Z,101004.13
2019-04-16T22:10:52.459Z,101001.84
2019-04-16T22:13:22.056Z,101005.50
2019-04-16T22:15:53.795Z,101007.98
2019-04-16T22:18:22.990Z,101016.00
2019-04-16T22:20:52.595Z,101015.59
2019-04-16T22:23:22.199Z,101014.50
2019-04-16T22:25:51.799Z,101016.47
2019-04-16T22:28:22.107Z,101016.13
2019-04-16T22:30:52.331Z,101018.00
2019-04-16T22:33:21.923Z,101019.61
2019-04-16T22:35:51.526Z,101014.14
2019-04-16T22:38:21.129Z,101022.14
2019-04-16T22:40:58.056Z,101017.94
2019-04-16T22:43:29.293Z,101021.04
2019-04-16T22:45:58.669Z,101016.21
2019-04-16T22:48:28.323Z,101015.66
2019-04-16T22:50:57.944Z,101021.59
2019-04-16T22:53:27.548Z,101022.86
2019-04-16T22:55:58.041Z,101023.48
2019-04-16T22:58:29.430Z,101025.14
2019-04-16T23:01:00.747Z,101021.83
2019-04-16T23:03:30.417Z,101029.34
2019-04-16T23:06:00.899Z,101019.08
2019-04-16T23:08:31.343Z,101022.45
2019-04-16T23:11:01.115Z,101022.97
2019-04-16T23:13:32.628Z,101022.17
2019-04-16T23:16:03.154Z,101021.03
2019-04-16T23:18:32.709Z,101026.58
2019-04-16T23:21:02.328Z,101027.25
2019-04-16T23:23:31.923Z,101019.91
2019-04-16T23:26:01.588Z,101026.83
2019-04-16T23:28:31.160Z,101026.95
2019-04-16T23:31:00.765Z,101031.89
2019-04-16T23:33:32.800Z,101034.02
2019-04-16T23:36:01.719Z,101034.86
2019-04-16T23:38:32.390Z,101036.36
2019-04-16T23:41:02.135Z,101029.01
2019-04-16T23:43:39.973Z,101035.44
2019-04-16T23:46:38.651Z,101029.20
2019-04-16T23:49:26.576Z,101040.41
2019-04-16T23:52:03.858Z,101036.63
2019-04-16T23:54:40.700Z,101037.14
2019-04-16T23:57:21.625Z,101036.07
